Richland, WA

11:38 AM PST on February 08, 2016 (GMT -0800)
Richland | | Change Station
CLOSE
Current Station
Personal Weather Station
Location: Richland, WA
Elevation: 397 ft
Nearby Weather Stations

Elev 397 ft 46.28 °N, 119.30 °W | Updated 10 minutes ago

Clear
Clear
44.2 °F
Feels Like 44 °F
N
2.7
Wind Variable Wind from West

Today
High -- | Low -- °F
--% Chance of Precip.
Yesterday
High -- | Low -- °F
Precip. -- in
Pressure 30.69 in
Visibility 10.0 miles
Clouds Clear
Windchill 44 °F
Dew Point 35 °F
Humidity 70%
Rainfall 0.00 in
Snow Depth Not available.
7:11 AM 5:11 PM
New Moon, 0% visible
METAR KPSC 081853Z 00000KT 10SM CLR 06/01 A3068 RMK AO2 SLP391 T00560006
Pressure 30.69 in
Visibility 10.0 miles
Clouds Clear
Windchill 44 °F
Dew Point 35 °F
Humidity 70%
Rainfall 0.00 in
Snow Depth Not available.
7:11 AM 5:11 PM
New Moon, 0% visible
METAR KPSC 081853Z 00000KT 10SM CLR 06/01 A3068 RMK AO2 SLP391 T00560006

10-Day Weather Forecast

Almanac

Astronomy

Feb. 08, 2016 Rise Set
Actual Time
Civil Twilight
Nautical Twilight
Astronomical Twilight
Moon
Length of Visible Light
Length of Day
Tomorrow will be .
, % of the Moon is Illuminated

Today's Extremes

State Highs State Lows

Community

WunderPhotos

Upload Photos

1,891,499 photos uploaded!

WunderBlog® & News

Nearby

Air Quality

  Air Quality AQ Index Pollutant
Not available.

Snow Depth

Station Depth Elevation

Earthquake Activity

City Distance Mag. Time & Date
Minimum magnitude displayed is 2.5.

Coastal Water Temperatures

Place Temperature

Stations

Nearby Weather Stations

Station Location Temp. Windchill Dew Point Humidity Wind Precip. Elev Updated Type
                   

Watches & Warnings

There are currently no watches in effect.